sensor_id;sensor_type;location;lat;lon;timestamp;pressure;altitude;pressure_sealevel;temperature;humidity
50933;BME280;36921;49.006;9.292;2024-03-23T00:51:15;98079.34;;;6.93;100.00
50933;BME280;36921;49.006;9.292;2024-03-23T00:56:06;98073.91;;;6.79;100.00
50933;BME280;36921;49.006;9.292;2024-03-23T00:58:31;98071.63;;;6.83;100.00
50933;BME280;36921;49.006;9.292;2024-03-23T01:00:57;98065.41;;;6.76;100.00
50933;BME280;36921;49.006;9.292;2024-03-23T01:03:22;98048.16;;;6.64;100.00
50933;BME280;36921;49.006;9.292;2024-03-23T01:05:47;98043.59;;;6.64;100.00
50933;BME280;36921;49.006;9.292;2024-03-23T01:08:14;98040.72;;;6.66;100.00
50933;BME280;36921;49.006;9.292;2024-03-23T01:10:39;98057.38;;;6.83;100.00
50933;BME280;36921;49.006;9.292;2024-03-23T01:13:04;98036.50;;;6.85;100.00
50933;BME280;36921;49.006;9.292;2024-03-23T01:15:29;98029.78;;;7.09;100.00
50933;BME280;36921;49.006;9.292;2024-03-23T01:17:55;98030.66;;;7.22;100.00
50933;BME280;36921;49.006;9.292;2024-03-23T01:20:20;98020.41;;;7.46;100.00
50933;BME280;36921;49.006;9.292;2024-03-23T01:22:45;98005.31;;;7.58;100.00
50933;BME280;36921;49.006;9.292;2024-03-23T01:25:10;98016.34;;;7.77;100.00
50933;BME280;36921;49.006;9.292;2024-03-23T01:27:36;97999.13;;;7.78;100.00
50933;BME280;36921;49.006;9.292;2024-03-23T01:30:01;97984.44;;;7.87;100.00
50933;BME280;36921;49.006;9.292;2024-03-23T01:32:26;97993.97;;;7.96;100.00
50933;BME280;36921;49.006;9.292;2024-03-23T01:34:51;97987.56;;;7.97;100.00
50933;BME280;36921;49.006;9.292;2024-03-23T01:37:17;97973.25;;;7.90;100.00
50933;BME280;36921;49.006;9.292;2024-03-23T01:39:42;97996.03;;;8.01;100.00
50933;BME280;36921;49.006;9.292;2024-03-23T01:42:07;97985.06;;;7.96;100.00
50933;BME280;36921;49.006;9.292;2024-03-23T01:44:32;97974.50;;;7.87;100.00
50933;BME280;36921;49.006;9.292;2024-03-23T01:46:58;97987.78;;;8.02;100.00
50933;BME280;36921;49.006;9.292;2024-03-23T01:49:24;97978.22;;;7.93;100.00
50933;BME280;36921;49.006;9.292;2024-03-23T01:51:49;97969.13;;;8.07;100.00
50933;BME280;36921;49.006;9.292;2024-03-23T01:54:15;97964.97;;;8.11;100.00
50933;BME280;36921;49.006;9.292;2024-03-23T01:56:40;97971.59;;;8.29;100.00
50933;BME280;36921;49.006;9.292;2024-03-23T01:59:06;97956.03;;;8.24;100.00
50933;BME280;36921;49.006;9.292;2024-03-23T02:01:32;97932.63;;;8.11;100.00
50933;BME280;36921;49.006;9.292;2024-03-23T02:03:58;97941.53;;;8.19;100.00
50933;BME280;36921;49.006;9.292;2024-03-23T02:06:26;97946.09;;;8.11;100.00
50933;BME280;36921;49.006;9.292;2024-03-23T02:08:53;97956.25;;;8.09;100.00
50933;BME280;36921;49.006;9.292;2024-03-23T02:11:18;97914.84;;;7.97;100.00
50933;BME280;36921;49.006;9.292;2024-03-23T02:13:43;97931.38;;;8.14;100.00
50933;BME280;36921;49.006;9.292;2024-03-23T02:16:09;97919.19;;;8.05;100.00
50933;BME280;36921;49.006;9.292;2024-03-23T02:18:34;97909.88;;;7.87;100.00
50933;BME280;36921;49.006;9.292;2024-03-23T02:21:00;97936.38;;;7.84;100.00
50933;BME280;36921;49.006;9.292;2024-03-23T02:23:25;97933.06;;;7.68;100.00
50933;BME280;36921;49.006;9.292;2024-03-23T02:25:51;97929.53;;;7.61;100.00
50933;BME280;36921;49.006;9.292;2024-03-23T02:28:18;97924.78;;;7.63;100.00
50933;BME280;36921;49.006;9.292;2024-03-23T02:30:43;97933.06;;;7.68;100.00
50933;BME280;36921;49.006;9.292;2024-03-23T02:33:08;97928.91;;;7.59;100.00
50933;BME280;36921;49.006;9.292;2024-03-23T02:35:34;97913.56;;;7.46;100.00
50933;BME280;36921;49.006;9.292;2024-03-23T02:37:59;97915.03;;;7.56;100.00
50933;BME280;36921;49.006;9.292;2024-03-23T02:40:25;97896.00;;;7.71;100.00
50933;BME280;36921;49.006;9.292;2024-03-23T02:42:50;97905.91;;;8.03;100.00
50933;BME280;36921;49.006;9.292;2024-03-23T02:45:16;97898.63;;;8.24;100.00
50933;BME280;36921;49.006;9.292;2024-03-23T02:47:41;97889.25;;;8.33;100.00
50933;BME280;36921;49.006;9.292;2024-03-23T02:50:07;97890.31;;;8.45;100.00
50933;BME280;36921;49.006;9.292;2024-03-23T02:52:32;97876.44;;;8.28;100.00
50933;BME280;36921;49.006;9.292;2024-03-23T02:54:58;97881.63;;;8.17;100.00
50933;BME280;36921;49.006;9.292;2024-03-23T02:57:23;97897.41;;;8.06;100.00
50933;BME280;36921;49.006;9.292;2024-03-23T02:59:49;97915.66;;;8.04;100.00
50933;BME280;36921;49.006;9.292;2024-03-23T03:02:15;97928.50;;;8.02;100.00
50933;BME280;36921;49.006;9.292;2024-03-23T03:04:41;97920.84;;;7.99;100.00
50933;BME280;36921;49.006;9.292;2024-03-23T03:07:06;97909.03;;;8.00;100.00
50933;BME280;36921;49.006;9.292;2024-03-23T03:09:31;97921.22;;;8.09;100.00
50933;BME280;36921;49.006;9.292;2024-03-23T03:11:58;97913.16;;;8.03;100.00
50933;BME280;36921;49.006;9.292;2024-03-23T03:14:23;97904.47;;;8.01;100.00
50933;BME280;36921;49.006;9.292;2024-03-23T03:16:48;97905.66;;;8.25;100.00
50933;BME280;36921;49.006;9.292;2024-03-23T03:19:14;97904.22;;;8.22;100.00
50933;BME280;36921;49.006;9.292;2024-03-23T03:21:39;97899.03;;;8.34;100.00
50933;BME280;36921;49.006;9.292;2024-03-23T03:24:06;97885.78;;;8.39;100.00
50933;BME280;36921;49.006;9.292;2024-03-23T03:26:31;97866.69;;;8.34;100.00
50933;BME280;36921;49.006;9.292;2024-03-23T03:28:57;97872.06;;;8.34;100.00
50933;BME280;36921;49.006;9.292;2024-03-23T03:31:22;97880.78;;;8.29;100.00
50933;BME280;36921;49.006;9.292;2024-03-23T03:33:49;97885.16;;;8.24;100.00
50933;BME280;36921;49.006;9.292;2024-03-23T03:36:14;97869.03;;;8.04;100.00
50933;BME280;36921;49.006;9.292;2024-03-23T03:38:40;97844.97;;;8.16;100.00
50933;BME280;36921;49.006;9.292;2024-03-23T03:41:05;97856.94;;;8.33;100.00
50933;BME280;36921;49.006;9.292;2024-03-23T03:43:31;97875.81;;;8.46;100.00
50933;BME280;36921;49.006;9.292;2024-03-23T03:45:59;97865.03;;;8.40;100.00
50933;BME280;36921;49.006;9.292;2024-03-23T03:48:24;97876.63;;;8.47;100.00
50933;BME280;36921;49.006;9.292;2024-03-23T03:50:50;97862.91;;;8.48;100.00
50933;BME280;36921;49.006;9.292;2024-03-23T03:53:15;97853.38;;;8.52;100.00
50933;BME280;36921;49.006;9.292;2024-03-23T03:55:41;97841.59;;;8.47;100.00
50933;BME280;36921;49.006;9.292;2024-03-23T03:58:06;97827.63;;;8.56;100.00
50933;BME280;36921;49.006;9.292;2024-03-23T04:00:31;97808.50;;;8.71;100.00
50933;BME280;36921;49.006;9.292;2024-03-23T04:02:57;97784.94;;;8.92;100.00
50933;BME280;36921;49.006;9.292;2024-03-23T04:05:22;97804.16;;;9.02;100.00
50933;BME280;36921;49.006;9.292;2024-03-23T04:07:48;97782.09;;;8.80;100.00
50933;BME280;36921;49.006;9.292;2024-03-23T04:10:13;97794.09;;;8.84;100.00
50933;BME280;36921;49.006;9.292;2024-03-23T04:12:40;97798.22;;;8.93;100.00
50933;BME280;36921;49.006;9.292;2024-03-23T04:15:06;97821.19;;;8.96;100.00
50933;BME280;36921;49.006;9.292;2024-03-23T04:17:31;97817.75;;;8.82;100.00
50933;BME280;36921;49.006;9.292;2024-03-23T04:19:58;97820.09;;;8.72;100.00
50933;BME280;36921;49.006;9.292;2024-03-23T04:22:24;97836.25;;;8.78;100.00
50933;BME280;36921;49.006;9.292;2024-03-23T04:24:54;97846.00;;;8.80;100.00
50933;BME280;36921;49.006;9.292;2024-03-23T04:27:19;97826.72;;;8.76;100.00
50933;BME280;36921;49.006;9.292;2024-03-23T04:29:51;97837.81;;;8.93;100.00
50933;BME280;36921;49.006;9.292;2024-03-23T04:32:17;97855.94;;;9.17;100.00
50933;BME280;36921;49.006;9.292;2024-03-23T04:34:43;97850.13;;;9.20;100.00
50933;BME280;36921;49.006;9.292;2024-03-23T04:37:09;97848.50;;;9.13;100.00
50933;BME280;36921;49.006;9.292;2024-03-23T04:39:36;97854.25;;;9.23;100.00
50933;BME280;36921;49.006;9.292;2024-03-23T04:42:01;97854.88;;;9.25;100.00
50933;BME280;36921;49.006;9.292;2024-03-23T04:44:26;97834.13;;;9.19;100.00
50933;BME280;36921;49.006;9.292;2024-03-23T04:46:52;97849.88;;;9.22;100.00
50933;BME280;36921;49.006;9.292;2024-03-23T04:49:17;97872.84;;;9.38;100.00
50933;BME280;36921;49.006;9.292;2024-03-23T04:51:42;97864.94;;;9.36;100.00
50933;BME280;36921;49.006;9.292;2024-03-23T04:54:11;97864.50;;;9.39;100.00
50933;BME280;36921;49.006;9.292;2024-03-23T04:56:37;97859.19;;;9.33;100.00
50933;BME280;36921;49.006;9.292;2024-03-23T04:59:02;97875.66;;;9.50;100.00
50933;BME280;36921;49.006;9.292;2024-03-23T05:01:30;97856.13;;;9.48;100.00
50933;BME280;36921;49.006;9.292;2024-03-23T05:03:56;97896.09;;;9.64;100.00
50933;BME280;36921;49.006;9.292;2024-03-23T05:06:22;97862.75;;;9.52;100.00
50933;BME280;36921;49.006;9.292;2024-03-23T05:08:47;97887.75;;;9.72;100.00
50933;BME280;36921;49.006;9.292;2024-03-23T05:11:12;97887.03;;;9.83;100.00
50933;BME280;36921;49.006;9.292;2024-03-23T05:13:38;97864.88;;;9.75;100.00
50933;BME280;36921;49.006;9.292;2024-03-23T05:16:03;97873.78;;;9.75;100.00
50933;BME280;36921;49.006;9.292;2024-03-23T05:18:29;97877.03;;;9.84;100.00
50933;BME280;36921;49.006;9.292;2024-03-23T05:20:56;97883.69;;;9.81;100.00
50933;BME280;36921;49.006;9.292;2024-03-23T05:23:22;97864.53;;;9.64;100.00
50933;BME280;36921;49.006;9.292;2024-03-23T05:25:48;97880.06;;;9.69;100.00
50933;BME280;36921;49.006;9.292;2024-03-23T05:28:13;97880.66;;;9.71;100.00
50933;BME280;36921;49.006;9.292;2024-03-23T05:30:38;97869.69;;;9.66;100.00
50933;BME280;36921;49.006;9.292;2024-03-23T05:33:05;97885.38;;;9.82;100.00
50933;BME280;36921;49.006;9.292;2024-03-23T05:35:30;97899.91;;;9.81;100.00
50933;BME280;36921;49.006;9.292;2024-03-23T05:37:57;97909.06;;;9.80;100.00
50933;BME280;36921;49.006;9.292;2024-03-23T05:40:23;97916.13;;;9.81;100.00
50933;BME280;36921;49.006;9.292;2024-03-23T05:42:49;97905.31;;;9.81;100.00
50933;BME280;36921;49.006;9.292;2024-03-23T05:45:14;97908.09;;;9.75;100.00
50933;BME280;36921;49.006;9.292;2024-03-23T05:47:39;97895.22;;;9.70;100.00
50933;BME280;36921;49.006;9.292;2024-03-23T05:52:42;97887.13;;;9.70;100.00
50933;BME280;36921;49.006;9.292;2024-03-23T05:55:08;97887.13;;;9.70;100.00
50933;BME280;36921;49.006;9.292;2024-03-23T05:57:34;97888.84;;;9.64;100.00
50933;BME280;36921;49.006;9.292;2024-03-23T05:59:59;97919.81;;;9.62;100.00
50933;BME280;36921;49.006;9.292;2024-03-23T06:02:24;97905.19;;;9.44;100.00
50933;BME280;36921;49.006;9.292;2024-03-23T06:04:50;97935.84;;;9.57;100.00
50933;BME280;36921;49.006;9.292;2024-03-23T06:07:16;97956.84;;;9.55;100.00
50933;BME280;36921;49.006;9.292;2024-03-23T06:09:42;97936.31;;;9.47;100.00
50933;BME280;36921;49.006;9.292;2024-03-23T06:12:08;97928.34;;;9.59;100.00
50933;BME280;36921;49.006;9.292;2024-03-23T06:14:38;97932.09;;;9.58;100.00
50933;BME280;36921;49.006;9.292;2024-03-23T06:17:04;97920.94;;;9.48;100.00
50933;BME280;36921;49.006;9.292;2024-03-23T06:19:30;97918.47;;;9.46;100.00
50933;BME280;36921;49.006;9.292;2024-03-23T06:21:57;97924.06;;;9.44;100.00
50933;BME280;36921;49.006;9.292;2024-03-23T06:24:22;97932.22;;;9.38;100.00
50933;BME280;36921;49.006;9.292;2024-03-23T06:26:48;97952.91;;;9.51;100.00
50933;BME280;36921;49.006;9.292;2024-03-23T06:29:13;97975.56;;;9.50;100.00
50933;BME280;36921;49.006;9.292;2024-03-23T06:31:38;97980.78;;;9.44;100.00
50933;BME280;36921;49.006;9.292;2024-03-23T06:34:04;97978.44;;;9.55;100.00
50933;BME280;36921;49.006;9.292;2024-03-23T06:36:29;97957.78;;;9.35;100.00
50933;BME280;36921;49.006;9.292;2024-03-23T06:38:56;97983.66;;;9.50;100.00
50933;BME280;36921;49.006;9.292;2024-03-23T06:41:21;97983.28;;;9.39;100.00
50933;BME280;36921;49.006;9.292;2024-03-23T06:43:46;98008.66;;;9.38;100.00
50933;BME280;36921;49.006;9.292;2024-03-23T06:46:12;98003.69;;;9.35;100.00
50933;BME280;36921;49.006;9.292;2024-03-23T06:48:37;97986.31;;;9.11;100.00
50933;BME280;36921;49.006;9.292;2024-03-23T06:51:02;98012.22;;;9.26;100.00
50933;BME280;36921;49.006;9.292;2024-03-23T06:53:28;98003.94;;;9.20;100.00
50933;BME280;36921;49.006;9.292;2024-03-23T06:55:54;98035.41;;;9.40;100.00
50933;BME280;36921;49.006;9.292;2024-03-23T06:58:24;98039.38;;;9.37;100.00
50933;BME280;36921;49.006;9.292;2024-03-23T07:00:50;98052.22;;;9.42;100.00
50933;BME280;36921;49.006;9.292;2024-03-23T07:03:16;98037.03;;;9.48;100.00
50933;BME280;36921;49.006;9.292;2024-03-23T07:05:42;98015.75;;;9.26;100.00
50933;BME280;36921;49.006;9.292;2024-03-23T07:08:07;98045.88;;;9.68;100.00
50933;BME280;36921;49.006;9.292;2024-03-23T07:10:33;98054.06;;;9.93;100.00
50933;BME280;36921;49.006;9.292;2024-03-23T07:12:58;98061.19;;;9.81;100.00
50933;BME280;36921;49.006;9.292;2024-03-23T07:15:24;98059.84;;;9.90;100.00
50933;BME280;36921;49.006;9.292;2024-03-23T07:17:49;98076.75;;;9.85;100.00
50933;BME280;36921;49.006;9.292;2024-03-23T07:20:15;98078.22;;;9.81;100.00
50933;BME280;36921;49.006;9.292;2024-03-23T07:22:40;98084.16;;;9.97;100.00
50933;BME280;36921;49.006;9.292;2024-03-23T07:25:06;98084.56;;;10.32;100.00
50933;BME280;36921;49.006;9.292;2024-03-23T07:27:32;98061.34;;;10.49;100.00
50933;BME280;36921;49.006;9.292;2024-03-23T07:29:58;98082.00;;;10.44;100.00
50933;BME280;36921;49.006;9.292;2024-03-23T07:32:24;98113.28;;;10.26;100.00
50933;BME280;36921;49.006;9.292;2024-03-23T07:34:49;98116.97;;;10.00;100.00
50933;BME280;36921;49.006;9.292;2024-03-23T07:37:14;98105.22;;;9.88;100.00
50933;BME280;36921;49.006;9.292;2024-03-23T07:39:40;98132.59;;;9.92;100.00
50933;BME280;36921;49.006;9.292;2024-03-23T07:42:06;98139.34;;;9.69;100.00
50933;BME280;36921;49.006;9.292;2024-03-23T07:44:31;98128.19;;;9.59;100.00
50933;BME280;36921;49.006;9.292;2024-03-23T07:46:56;98121.16;;;9.51;100.00
50933;BME280;36921;49.006;9.292;2024-03-23T07:49:22;98095.09;;;9.25;100.00
50933;BME280;36921;49.006;9.292;2024-03-23T07:51:47;98104.44;;;9.16;100.00
50933;BME280;36921;49.006;9.292;2024-03-23T07:54:12;98141.94;;;9.37;100.00
50933;BME280;36921;49.006;9.292;2024-03-23T07:56:38;98155.44;;;9.37;100.00
50933;BME280;36921;49.006;9.292;2024-03-23T07:59:03;98163.13;;;9.47;100.00
50933;BME280;36921;49.006;9.292;2024-03-23T08:01:29;98172.28;;;9.39;100.00
50933;BME280;36921;49.006;9.292;2024-03-23T08:03:54;98188.06;;;9.29;100.00
50933;BME280;36921;49.006;9.292;2024-03-23T08:06:20;98207.22;;;9.14;100.00
50933;BME280;36921;49.006;9.292;2024-03-23T08:08:50;98212.59;;;8.81;100.00
50933;BME280;36921;49.006;9.292;2024-03-23T08:11:16;98221.72;;;9.00;100.00
50933;BME280;36921;49.006;9.292;2024-03-23T08:13:42;98222.13;;;9.04;100.00
50933;BME280;36921;49.006;9.292;2024-03-23T08:16:09;98220.06;;;9.06;100.00
50933;BME280;36921;49.006;9.292;2024-03-23T08:18:35;98214.66;;;9.19;100.00
50933;BME280;36921;49.006;9.292;2024-03-23T08:21:02;98236.25;;;9.32;100.00
50933;BME280;36921;49.006;9.292;2024-03-23T08:23:29;98221.03;;;9.58;100.00
50933;BME280;36921;49.006;9.292;2024-03-23T08:26:00;98229.69;;;9.86;100.00
50933;BME280;36921;49.006;9.292;2024-03-23T08:28:26;98212.22;;;9.89;100.00
50933;BME280;36921;49.006;9.292;2024-03-23T08:30:55;98228.91;;;10.38;100.00
50933;BME280;36921;49.006;9.292;2024-03-23T08:33:21;98219.25;;;11.55;100.00
50933;BME280;36921;49.006;9.292;2024-03-23T08:35:58;98211.22;;;12.04;100.00
50933;BME280;36921;49.006;9.292;2024-03-23T08:38:24;98217.47;;;14.13;100.00
50933;BME280;36921;49.006;9.292;2024-03-23T08:43:22;98193.63;;;22.31;81.17
50933;BME280;36921;49.006;9.292;2024-03-23T08:45:48;98221.34;;;23.87;65.17
50933;BME280;36921;49.006;9.292;2024-03-23T08:48:13;98234.28;;;24.19;63.22
50933;BME280;36921;49.006;9.292;2024-03-23T08:50:38;98242.81;;;23.43;62.48
50933;BME280;36921;49.006;9.292;2024-03-23T08:53:03;98266.16;;;20.95;68.05
50933;BME280;36921;49.006;9.292;2024-03-23T08:55:29;98285.72;;;17.90;80.96
50933;BME280;36921;49.006;9.292;2024-03-23T08:57:55;98263.41;;;15.24;100.00
50933;BME280;36921;49.006;9.292;2024-03-23T09:00:21;98288.19;;;14.13;100.00
50933;BME280;36921;49.006;9.292;2024-03-23T09:02:48;98254.47;;;12.78;100.00
50933;BME280;36921;49.006;9.292;2024-03-23T09:05:13;98264.44;;;12.35;100.00
50933;BME280;36921;49.006;9.292;2024-03-23T09:07:38;98291.63;;;12.47;100.00
50933;BME280;36921;49.006;9.292;2024-03-23T09:10:04;98278.53;;;12.25;100.00
50933;BME280;36921;49.006;9.292;2024-03-23T09:12:30;98280.22;;;11.83;100.00
50933;BME280;36921;49.006;9.292;2024-03-23T09:14:55;98292.84;;;11.27;100.00
50933;BME280;36921;49.006;9.292;2024-03-23T09:17:20;98302.59;;;11.03;100.00
50933;BME280;36921;49.006;9.292;2024-03-23T09:19:45;98317.34;;;11.07;100.00
50933;BME280;36921;49.006;9.292;2024-03-23T09:22:11;98332.88;;;11.18;100.00
50933;BME280;36921;49.006;9.292;2024-03-23T09:24:36;98336.63;;;11.17;100.00
50933;BME280;36921;49.006;9.292;2024-03-23T09:27:02;98342.56;;;10.63;100.00
50933;BME280;36921;49.006;9.292;2024-03-23T09:29:28;98312.94;;;10.29;100.00
50933;BME280;36921;49.006;9.292;2024-03-23T09:31:53;98345.31;;;10.49;100.00
50933;BME280;36921;49.006;9.292;2024-03-23T09:34:19;98355.75;;;10.39;100.00
50933;BME280;36921;49.006;9.292;2024-03-23T09:36:44;98350.78;;;10.36;100.00
50933;BME280;36921;49.006;9.292;2024-03-23T09:39:10;98339.47;;;10.59;100.00
50933;BME280;36921;49.006;9.292;2024-03-23T09:41:35;98361.03;;;12.18;100.00
50933;BME280;36921;49.006;9.292;2024-03-23T09:44:01;98332.16;;;12.79;100.00
50933;BME280;36921;49.006;9.292;2024-03-23T09:46:27;98343.19;;;12.96;100.00
50933;BME280;36921;49.006;9.292;2024-03-23T09:48:55;98338.81;;;12.64;100.00
50933;BME280;36921;49.006;9.292;2024-03-23T09:51:21;98336.47;;;12.13;100.00
50933;BME280;36921;49.006;9.292;2024-03-23T09:53:46;98328.47;;;11.99;100.00
50933;BME280;36921;49.006;9.292;2024-03-23T09:56:11;98330.22;;;12.12;100.00
50933;BME280;36921;49.006;9.292;2024-03-23T09:58:37;98345.44;;;11.95;100.00
50933;BME280;36921;49.006;9.292;2024-03-23T10:01:02;98312.09;;;11.62;100.00
50933;BME280;36921;49.006;9.292;2024-03-23T10:03:28;98339.78;;;12.33;100.00
50933;BME280;36921;49.006;9.292;2024-03-23T10:06:03;98336.22;;;15.74;100.00
50933;BME280;36921;49.006;9.292;2024-03-23T10:08:30;98318.50;;;20.74;82.78
50933;BME280;36921;49.006;9.292;2024-03-23T10:10:56;98322.94;;;23.57;66.48
50933;BME280;36921;49.006;9.292;2024-03-23T10:13:28;98306.97;;;22.73;57.89
50933;BME280;36921;49.006;9.292;2024-03-23T10:15:58;98332.41;;;19.92;64.11
50933;BME280;36921;49.006;9.292;2024-03-23T10:18:24;98334.38;;;17.83;68.58
50933;BME280;36921;49.006;9.292;2024-03-23T10:23:31;98341.88;;;15.39;77.73
50933;BME280;36921;49.006;9.292;2024-03-23T10:26:25;98336.44;;;14.29;80.49
50933;BME280;36921;49.006;9.292;2024-03-23T10:31:20;98333.69;;;12.38;89.21
50933;BME280;36921;49.006;9.292;2024-03-23T10:33:49;98342.50;;;12.15;98.56
50933;BME280;36921;49.006;9.292;2024-03-23T10:36:14;98342.97;;;11.61;100.00
50933;BME280;36921;49.006;9.292;2024-03-23T10:38:44;98347.47;;;11.17;100.00
50933;BME280;36921;49.006;9.292;2024-03-23T10:41:10;98354.38;;;11.13;100.00
50933;BME280;36921;49.006;9.292;2024-03-23T10:43:36;98342.06;;;10.79;100.00
50933;BME280;36921;49.006;9.292;2024-03-23T10:46:03;98321.78;;;10.57;100.00
50933;BME280;36921;49.006;9.292;2024-03-23T10:48:28;98346.03;;;10.77;100.00
50933;BME280;36921;49.006;9.292;2024-03-23T10:50:53;98346.97;;;10.57;100.00
50933;BME280;36921;49.006;9.292;2024-03-23T10:53:21;98338.50;;;10.40;100.00
50933;BME280;36921;49.006;9.292;2024-03-23T10:55:49;98337.31;;;10.09;100.00
50933;BME280;36921;49.006;9.292;2024-03-23T10:58:17;98354.59;;;10.02;100.00
50933;BME280;36921;49.006;9.292;2024-03-23T11:00:44;98363.13;;;9.85;100.00
50933;BME280;36921;49.006;9.292;2024-03-23T11:03:37;98366.63;;;9.93;100.00
50933;BME280;36921;49.006;9.292;2024-03-23T11:06:07;98378.31;;;9.73;100.00
50933;BME280;36921;49.006;9.292;2024-03-23T11:08:36;98370.63;;;9.70;100.00
50933;BME280;36921;49.006;9.292;2024-03-23T11:11:17;98370.22;;;9.47;100.00
50933;BME280;36921;49.006;9.292;2024-03-23T11:13:43;98367.81;;;8.84;100.00
50933;BME280;36921;49.006;9.292;2024-03-23T11:16:28;98375.00;;;9.51;100.00
50933;BME280;36921;49.006;9.292;2024-03-23T11:19:33;98363.31;;;11.71;100.00
50933;BME280;36921;49.006;9.292;2024-03-23T11:21:59;98361.34;;;12.46;100.00
50933;BME280;36921;49.006;9.292;2024-03-23T11:24:24;98357.22;;;15.28;96.48
50933;BME280;36921;49.006;9.292;2024-03-23T11:26:49;98318.09;;;16.40;85.91
50933;BME280;36921;49.006;9.292;2024-03-23T11:29:16;98350.59;;;17.89;75.33
50933;BME280;36921;49.006;9.292;2024-03-23T11:31:49;98346.94;;;15.64;80.04
50933;BME280;36921;49.006;9.292;2024-03-23T11:34:21;98354.75;;;14.98;81.74
50933;BME280;36921;49.006;9.292;2024-03-23T11:36:47;98338.56;;;13.80;85.47
50933;BME280;36921;49.006;9.292;2024-03-23T11:39:19;98374.13;;;13.67;89.12
50933;BME280;36921;49.006;9.292;2024-03-23T11:41:52;98372.09;;;15.99;81.88
50933;BME280;36921;49.006;9.292;2024-03-23T11:44:22;98358.19;;;19.66;71.27
50933;BME280;36921;49.006;9.292;2024-03-23T11:46:49;98359.13;;;18.93;63.88
50933;BME280;36921;49.006;9.292;2024-03-23T11:49:27;98362.94;;;18.34;65.39
50933;BME280;36921;49.006;9.292;2024-03-23T11:51:55;98362.09;;;16.83;70.26
50933;BME280;36921;49.006;9.292;2024-03-23T11:54:21;98361.03;;;16.67;72.01
50933;BME280;36921;49.006;9.292;2024-03-23T11:57:01;98347.16;;;19.20;66.04
50933;BME280;36921;49.006;9.292;2024-03-23T11:59:36;98346.41;;;18.67;66.26
50933;BME280;36921;49.006;9.292;2024-03-23T12:04:32;98336.78;;;20.09;63.42
50933;BME280;36921;49.006;9.292;2024-03-23T12:07:19;98341.78;;;19.86;60.55
50933;BME280;36921;49.006;9.292;2024-03-23T12:09:46;98330.03;;;21.31;59.29
50933;BME280;36921;49.006;9.292;2024-03-23T12:12:16;98331.78;;;21.17;61.15
50933;BME280;36921;49.006;9.292;2024-03-23T12:15:01;98319.84;;;21.71;60.17
50933;BME280;36921;49.006;9.292;2024-03-23T12:17:26;98329.63;;;18.05;61.07
50933;BME280;36921;49.006;9.292;2024-03-23T12:19:52;98340.22;;;15.09;66.36
50933;BME280;36921;49.006;9.292;2024-03-23T12:22:20;98336.19;;;14.54;60.95
50933;BME280;36921;49.006;9.292;2024-03-23T12:24:46;98331.31;;;14.97;60.13
50933;BME280;36921;49.006;9.292;2024-03-23T12:27:11;98329.44;;;15.76;59.96
50933;BME280;36921;49.006;9.292;2024-03-23T12:29:36;98316.31;;;16.73;58.35
50933;BME280;36921;49.006;9.292;2024-03-23T12:32:04;98316.06;;;18.31;57.04
50933;BME280;36921;49.006;9.292;2024-03-23T12:34:30;98307.28;;;18.24;55.68
50933;BME280;36921;49.006;9.292;2024-03-23T12:36:56;98298.91;;;19.24;53.35
50933;BME280;36921;49.006;9.292;2024-03-23T12:39:21;98290.78;;;18.08;53.82
50933;BME280;36921;49.006;9.292;2024-03-23T12:41:48;98304.94;;;19.57;49.61
50933;BME280;36921;49.006;9.292;2024-03-23T12:44:13;98303.44;;;17.50;52.67
50933;BME280;36921;49.006;9.292;2024-03-23T12:46:40;98283.97;;;16.87;56.26
50933;BME280;36921;49.006;9.292;2024-03-23T12:49:06;98293.78;;;18.70;54.99
50933;BME280;36921;49.006;9.292;2024-03-23T12:51:32;98286.28;;;19.54;50.29
50933;BME280;36921;49.006;9.292;2024-03-23T12:53:57;98281.50;;;20.41;50.59
50933;BME280;36921;49.006;9.292;2024-03-23T12:56:23;98278.88;;;20.86;50.30
50933;BME280;36921;49.006;9.292;2024-03-23T12:58:48;98301.28;;;20.38;49.81
50933;BME280;36921;49.006;9.292;2024-03-23T13:01:16;98282.06;;;22.35;48.91
50933;BME280;36921;49.006;9.292;2024-03-23T13:03:42;98259.13;;;21.86;47.71
50933;BME280;36921;49.006;9.292;2024-03-23T13:06:09;98303.38;;;22.96;46.97
50933;BME280;36921;49.006;9.292;2024-03-23T13:08:35;98306.06;;;19.51;48.44
50933;BME280;36921;49.006;9.292;2024-03-23T13:11:00;98320.72;;;16.13;53.72
50933;BME280;36921;49.006;9.292;2024-03-23T13:13:25;98317.25;;;14.59;57.49
50933;BME280;36921;49.006;9.292;2024-03-23T13:15:51;98315.03;;;13.86;60.42
50933;BME280;36921;49.006;9.292;2024-03-23T13:18:16;98282.50;;;12.41;61.02
50933;BME280;36921;49.006;9.292;2024-03-23T13:20:41;98290.97;;;12.15;62.82
50933;BME280;36921;49.006;9.292;2024-03-23T13:23:07;98292.91;;;12.07;64.69
50933;BME280;36921;49.006;9.292;2024-03-23T13:25:32;98305.25;;;11.85;66.14
50933;BME280;36921;49.006;9.292;2024-03-23T13:27:58;98293.00;;;12.19;65.58
50933;BME280;36921;49.006;9.292;2024-03-23T13:30:23;98298.13;;;15.00;61.80
50933;BME280;36921;49.006;9.292;2024-03-23T13:32:48;98266.97;;;14.96;59.09
50933;BME280;36921;49.006;9.292;2024-03-23T13:35:14;98276.31;;;14.83;59.64
50933;BME280;36921;49.006;9.292;2024-03-23T13:37:39;98275.09;;;14.50;60.58
50933;BME280;36921;49.006;9.292;2024-03-23T13:40:06;98277.09;;;13.02;62.17
50933;BME280;36921;49.006;9.292;2024-03-23T13:42:31;98283.03;;;12.80;63.29
50933;BME280;36921;49.006;9.292;2024-03-23T13:44:57;98241.38;;;12.44;64.81
50933;BME280;36921;49.006;9.292;2024-03-23T13:47:22;98268.91;;;12.60;65.66
50933;BME280;36921;49.006;9.292;2024-03-23T13:49:47;98278.44;;;12.50;67.30
50933;BME280;36921;49.006;9.292;2024-03-23T13:52:14;98276.38;;;11.97;68.43
50933;BME280;36921;49.006;9.292;2024-03-23T13:54:39;98295.56;;;11.71;70.80
50933;BME280;36921;49.006;9.292;2024-03-23T13:57:10;98293.59;;;11.09;83.92
50933;BME280;36921;49.006;9.292;2024-03-23T13:59:35;98345.63;;;10.08;100.00